createdAt,value
2017-10-02T00:00:41.447Z,75.45
2017-10-02T00:01:51.465Z,75.64
2017-10-02T00:03:01.796Z,75.74
2017-10-02T00:04:11.828Z,75.84
2017-10-02T00:05:22.159Z,75.84
2017-10-02T00:06:32.186Z,75.36
2017-10-02T00:07:42.517Z,75.45
2017-10-02T00:08:52.856Z,75.64
2017-10-02T00:10:02.878Z,75.45
2017-10-02T00:11:13.279Z,75.36
2017-10-02T00:12:23.619Z,75.36
2017-10-02T00:13:33.943Z,76.12
2017-10-02T00:14:44.287Z,75.55
2017-10-02T00:15:54.624Z,75.84
2017-10-02T00:17:04.964Z,75.93
2017-10-02T00:18:15.283Z,75.93
2017-10-02T00:19:25.612Z,76.03
2017-10-02T00:20:35.940Z,75.55
2017-10-02T00:21:46.282Z,75.45
2017-10-02T00:22:56.645Z,75.64
2017-10-02T00:24:06.344Z,75.55
2017-10-02T00:25:16.668Z,75.55
2017-10-02T00:26:26.681Z,75.45
2017-10-02T00:27:36.758Z,75.64
2017-10-02T00:28:47.105Z,75.45
2017-10-02T00:29:57.445Z,75.74
2017-10-02T00:31:07.779Z,75.74
2017-10-02T00:32:18.107Z,75.74
2017-10-02T00:33:28.441Z,75.93
2017-10-02T00:34:38.523Z,75.93
2017-10-02T00:35:48.859Z,76.03
2017-10-02T00:36:59.187Z,75.36
2017-10-02T00:38:09.523Z,75.45
2017-10-02T00:39:19.571Z,75.55
2017-10-02T00:40:29.896Z,75.64
2017-10-02T00:41:40.228Z,75.45
2017-10-02T00:42:50.556Z,75.45
2017-10-02T00:44:00.886Z,75.45
2017-10-02T00:45:11.209Z,75.55
2017-10-02T00:46:21.222Z,75.55
2017-10-02T00:47:31.566Z,75.55
2017-10-02T00:48:41.906Z,75.55
2017-10-02T00:49:52.227Z,75.74
2017-10-02T00:51:02.266Z,75.64
2017-10-02T00:52:12.299Z,75.74
2017-10-02T00:53:22.638Z,75.45
2017-10-02T00:54:32.958Z,75.45
2017-10-02T00:55:42.975Z,75.64
2017-10-02T00:56:53.306Z,75.74
2017-10-02T00:58:03.698Z,75.55
2017-10-02T00:59:14.025Z,76.03
2017-10-02T01:00:24.348Z,75.93
2017-10-02T01:01:34.696Z,75.74
2017-10-02T01:02:44.707Z,76.03
2017-10-02T01:03:54.806Z,75.74
2017-10-02T01:05:05.123Z,76.03
2017-10-02T01:06:15.149Z,75.89
2017-10-02T01:07:25.163Z,75.7
2017-10-02T01:08:35.503Z,76.03
2017-10-02T01:09:45.886Z,75.89
2017-10-02T01:10:55.896Z,75.74
2017-10-02T01:12:06.225Z,75.7
2017-10-02T01:13:16.544Z,75.74
2017-10-02T01:14:26.882Z,75.93
2017-10-02T01:15:37.261Z,75.89
2017-10-02T01:16:46.976Z,75.89
2017-10-02T01:17:56.990Z,75.79
2017-10-02T01:19:07.324Z,75.99
2017-10-02T01:20:17.353Z,75.79
2017-10-02T01:21:27.050Z,75.79
2017-10-02T01:22:37.373Z,76.08
2017-10-02T01:23:47.718Z,75.79
2017-10-02T01:24:58.074Z,75.79
2017-10-02T01:26:08.410Z,75.79
2017-10-02T01:27:18.467Z,75.79
2017-10-02T01:28:28.801Z,75.79
2017-10-02T01:29:39.164Z,75.99
2017-10-02T01:30:49.500Z,75.99
2017-10-02T01:31:59.515Z,75.89
2017-10-02T01:33:09.219Z,75.89
2017-10-02T01:34:19.241Z,75.7
2017-10-02T01:35:29.569Z,75.89
2017-10-02T01:36:39.913Z,75.7
2017-10-02T01:37:50.248Z,75.7
2017-10-02T01:39:00.624Z,75.99
2017-10-02T01:40:10.966Z,75.32
2017-10-02T01:41:21.329Z,75.6
2017-10-02T01:42:31.335Z,75.42
2017-10-02T01:43:41.657Z,75.42
2017-10-02T01:44:52.005Z,75.42
2017-10-02T01:46:02.055Z,75.42
2017-10-02T01:47:12.075Z,75.51
2017-10-02T01:48:22.424Z,75.6
2017-10-02T01:49:32.736Z,75.51
2017-10-02T01:50:42.761Z,75.51
2017-10-02T01:51:53.108Z,75.6
2017-10-02T01:53:03.445Z,75.32
2017-10-02T01:54:13.463Z,75.32
2017-10-02T01:55:23.801Z,75.6
2017-10-02T01:56:33.865Z,75.32
2017-10-02T01:57:44.202Z,75.42
2017-10-02T01:58:54.225Z,75.79
2017-10-02T02:00:04.567Z,75.32
2017-10-02T02:01:14.585Z,75.42
2017-10-02T02:02:24.912Z,75.99
2017-10-02T02:03:35.251Z,75.32
2017-10-02T02:04:45.304Z,75.67
2017-10-02T02:05:55.626Z,75.42
2017-10-02T02:07:05.626Z,75.6
2017-10-02T02:08:16.009Z,75.57
2017-10-02T02:09:26.340Z,75.57
2017-10-02T02:10:36.380Z,75.57
2017-10-02T02:11:46.719Z,75.57
2017-10-02T02:12:56.747Z,75.47
2017-10-02T02:14:07.078Z,75.47
2017-10-02T02:15:17.085Z,75.67
2017-10-02T02:16:27.421Z,75.47
2017-10-02T02:17:37.432Z,75.47
2017-10-02T02:18:47.761Z,75.28
2017-10-02T02:19:58.106Z,75.67
2017-10-02T02:21:08.429Z,75.38
2017-10-02T02:22:18.764Z,75.67
2017-10-02T02:23:29.087Z,75.47
2017-10-02T02:24:39.424Z,75.47
2017-10-02T02:25:49.811Z,75.47
2017-10-02T02:27:00.148Z,75.38
2017-10-02T02:28:10.483Z,75.57
2017-10-02T02:29:20.807Z,75.57
2017-10-02T02:30:31.143Z,75.57
2017-10-02T02:31:41.554Z,75.38
2017-10-02T02:32:51.896Z,75.47
2017-10-02T02:34:02.228Z,75.67
2017-10-02T02:35:12.562Z,75.47
2017-10-02T02:36:22.928Z,75.47
2017-10-02T02:37:33.259Z,75.38
2017-10-02T02:38:43.603Z,75.47
2017-10-02T02:39:53.628Z,75.47
2017-10-02T02:41:03.979Z,75.57
2017-10-02T02:42:13.997Z,75.85
2017-10-02T02:43:24.688Z,75.85
2017-10-02T02:44:35.019Z,75.28
2017-10-02T02:45:45.028Z,75.28
2017-10-02T02:46:55.358Z,75.28
2017-10-02T02:48:05.377Z,75.28
2017-10-02T02:49:15.711Z,75.76
2017-10-02T02:50:26.042Z,75.47
2017-10-02T02:51:36.057Z,75.38
2017-10-02T02:52:46.407Z,75.38
2017-10-02T02:53:56.430Z,75.38
2017-10-02T02:55:06.745Z,75.76
2017-10-02T02:56:16.765Z,75.47
2017-10-02T02:57:27.093Z,75.47
2017-10-02T02:58:37.437Z,75.47
2017-10-02T02:59:47.450Z,75.47
2017-10-02T03:00:57.467Z,75.67
2017-10-02T03:02:07.797Z,75.85
2017-10-02T03:33:40.747Z,73.25
2017-10-02T03:34:51.078Z,73.54
2017-10-02T03:36:01.098Z,74.77
2017-10-02T03:37:11.403Z,75.43
2017-10-02T03:38:21.422Z,76.2
2017-10-02T03:39:31.760Z,76.2
2017-10-02T03:40:41.764Z,76.67
2017-10-02T03:41:51.775Z,76.57
2017-10-02T03:43:02.157Z,76.71
2017-10-02T03:44:12.183Z,76.71
2017-10-02T03:45:22.506Z,77.18
2017-10-02T03:46:32.823Z,76.71
2017-10-02T03:47:43.207Z,76.71
2017-10-02T03:48:53.216Z,76.84
2017-10-02T03:50:03.237Z,77.12
2017-10-02T03:51:13.570Z,76.93
2017-10-02T03:52:23.891Z,76.69
2017-10-02T03:53:34.209Z,76.56
2017-10-02T03:54:44.230Z,76.4
2017-10-02T03:55:54.267Z,76.69
2017-10-02T03:57:04.603Z,75.93
2017-10-02T03:58:14.617Z,76.4
2017-10-02T03:59:24.940Z,76.31
2017-10-02T04:00:35.344Z,76.03
2017-10-02T04:01:45.669Z,76.03
2017-10-02T04:02:56.018Z,76.03
2017-10-02T04:04:06.036Z,75.74
2017-10-02T04:05:16.371Z,75.68
2017-10-02T04:06:26.461Z,75.59
2017-10-02T04:07:36.477Z,75.49
2017-10-02T04:08:46.492Z,75.68
2017-10-02T04:09:56.814Z,75.68
2017-10-02T04:11:06.834Z,75.78
2017-10-02T04:12:17.222Z,75.59
2017-10-02T04:13:27.552Z,75.49
2017-10-02T04:14:37.881Z,75.68
2017-10-02T04:15:48.219Z,75.4
2017-10-02T04:16:58.229Z,75.3
2017-10-02T04:18:08.299Z,75.4
2017-10-02T04:19:18.639Z,75.59
2017-10-02T04:20:28.960Z,75.59
2017-10-02T04:21:39.271Z,75.49
2017-10-02T04:22:49.593Z,75.59
2017-10-02T04:23:59.679Z,75.21
2017-10-02T04:25:09.701Z,75.49
2017-10-02T04:26:20.032Z,75.4
2017-10-02T04:27:30.356Z,75.59
2017-10-02T04:28:40.371Z,75.4
2017-10-02T04:29:50.443Z,75.4
2017-10-02T04:31:00.458Z,75.4
2017-10-02T04:32:10.464Z,75.43
2017-10-02T04:33:20.787Z,75.43
2017-10-02T04:34:31.136Z,75.62
2017-10-02T04:35:41.472Z,75.62
2017-10-02T04:36:51.809Z,75.24
2017-10-02T04:38:02.168Z,75.15
2017-10-02T04:39:12.176Z,75.24
2017-10-02T04:40:22.504Z,75.24
2017-10-02T04:41:32.538Z,75.24
2017-10-02T04:42:42.556Z,75.24
2017-10-02T04:43:52.884Z,75.05
2017-10-02T04:45:02.908Z,75.15
2017-10-02T04:46:13.262Z,75.24
2017-10-02T04:47:23.014Z,75.15
2017-10-02T04:48:32.701Z,75.05
2017-10-02T04:49:43.038Z,75.24
2017-10-02T04:50:53.375Z,75.15
2017-10-02T04:52:03.705Z,75.15
2017-10-02T04:53:14.093Z,75.05
2017-10-02T04:54:24.426Z,75.15
2017-10-02T04:55:34.134Z,75.05
2017-10-02T04:56:44.148Z,75.05
2017-10-02T04:57:54.490Z,75.24
2017-10-02T04:59:04.824Z,75.15
2017-10-02T05:00:15.188Z,75.05
2017-10-02T05:01:25.205Z,74.96
2017-10-02T05:02:35.227Z,75.24
2017-10-02T05:03:45.241Z,75.24
2017-10-02T05:04:55.590Z,74.87
2017-10-02T05:06:05.919Z,75.15
2017-10-02T05:07:16.254Z,74.87
2017-10-02T05:08:26.587Z,75.24
2017-10-02T05:09:36.917Z,75.24
2017-10-02T05:10:47.243Z,75.24
2017-10-02T05:11:57.254Z,75.24
2017-10-02T05:13:07.658Z,75.43
2017-10-02T05:14:17.359Z,75.09
2017-10-02T05:15:27.691Z,75.34
2017-10-02T05:16:37.711Z,75.28
2017-10-02T05:17:47.736Z,74.96
2017-10-02T05:18:57.775Z,75.05
2017-10-02T05:20:07.788Z,75.53
2017-10-02T05:21:17.791Z,75.47
2017-10-02T05:22:27.851Z,74.9
2017-10-02T05:23:38.183Z,74.99
2017-10-02T05:24:48.505Z,74.9
2017-10-02T05:25:58.527Z,74.8
2017-10-02T05:27:08.858Z,75.19
2017-10-02T05:28:18.928Z,74.99
2017-10-02T05:29:29.262Z,75.09
2017-10-02T05:30:39.603Z,75.19
2017-10-02T05:31:49.940Z,75.09
2017-10-02T05:33:00.270Z,74.99
2017-10-02T05:34:10.660Z,75.19
2017-10-02T05:35:20.998Z,74.99
2017-10-02T05:36:31.339Z,75.19
2017-10-02T05:37:41.670Z,75.09
2017-10-02T05:38:51.692Z,75.09
2017-10-02T05:40:02.065Z,75.28
2017-10-02T05:41:12.089Z,75.28
2017-10-02T05:42:22.414Z,75.04
2017-10-02T05:43:32.788Z,75.04
2017-10-02T05:44:43.138Z,74.94
2017-10-02T05:45:53.155Z,74.65
2017-10-02T05:47:03.179Z,74.75
2017-10-02T05:48:13.209Z,74.84
2017-10-02T05:49:23.537Z,74.75
2017-10-02T05:50:33.862Z,74.75
2017-10-02T05:51:44.252Z,74.84
2017-10-02T05:52:54.584Z,74.84
2017-10-02T05:54:04.600Z,74.65
2017-10-02T05:55:14.745Z,74.65
2017-10-02T05:56:25.065Z,74.69
2017-10-02T05:57:35.395Z,74.69
2017-10-02T05:58:45.732Z,74.6
2017-10-02T05:59:55.746Z,74.69
2017-10-02T06:01:05.745Z,74.88
2017-10-02T06:02:16.098Z,74.88
2017-10-02T06:03:26.127Z,74.88
2017-10-02T06:04:36.471Z,74.79
2017-10-02T06:05:46.819Z,74.79
2017-10-02T06:06:57.148Z,74.92
2017-10-02T06:08:07.489Z,75.01
2017-10-02T06:09:17.887Z,74.92
2017-10-02T06:10:27.888Z,74.92
2017-10-02T06:11:38.216Z,74.82
2017-10-02T06:12:48.228Z,74.92
2017-10-02T06:13:57.939Z,75.01
2017-10-02T06:15:08.320Z,74.73
2017-10-02T06:16:18.652Z,74.54
2017-10-02T06:17:29.006Z,74.92
2017-10-02T06:18:40.021Z,74.77
2017-10-02T06:19:50.360Z,74.77
2017-10-02T06:21:00.778Z,74.77
2017-10-02T06:22:11.097Z,74.86
2017-10-02T06:23:21.426Z,75.05
2017-10-02T06:24:31.758Z,74.96
2017-10-02T06:25:42.092Z,74.86
2017-10-02T06:26:52.441Z,74.96
2017-10-02T06:28:02.785Z,75.05
2017-10-02T06:29:13.123Z,74.99
2017-10-02T06:30:22.849Z,74.99
2017-10-02T06:31:32.861Z,74.8
2017-10-02T06:32:42.931Z,74.8
2017-10-02T06:33:52.971Z,75.09
2017-10-02T06:35:03.325Z,74.9
2017-10-02T06:36:13.329Z,74.99
2017-10-02T06:37:23.668Z,74.8
2017-10-02T06:38:34.035Z,74.84
2017-10-02T06:39:43.726Z,75.42
2017-10-02T06:40:54.069Z,74.84
2017-10-02T06:42:04.092Z,74.55
2017-10-02T06:43:14.096Z,75.32
2017-10-02T06:44:24.484Z,74.84
2017-10-02T06:45:34.844Z,75.45
2017-10-02T06:46:45.192Z,75.35
2017-10-02T06:47:55.517Z,74.84
2017-10-02T06:49:05.873Z,75.45
2017-10-02T06:50:16.211Z,75.16
2017-10-02T06:51:26.537Z,74.98
2017-10-02T06:52:36.569Z,75.07
2017-10-02T06:53:46.904Z,75.35
2017-10-02T06:54:57.233Z,75.39
2017-10-02T06:56:07.294Z,75.39
2017-10-02T06:57:17.316Z,75.3
2017-10-02T06:58:27.663Z,75.2
2017-10-02T06:59:37.997Z,75.2
2017-10-02T07:00:48.029Z,75.1
2017-10-02T07:01:58.424Z,75.14
2017-10-02T07:03:08.769Z,75.24
2017-10-02T07:04:19.110Z,75.24
2017-10-02T07:05:29.123Z,75.52
2017-10-02T07:06:38.814Z,75.52
2017-10-02T07:07:48.252Z,75.52
2017-10-02T07:08:58.595Z,75.52
2017-10-02T07:10:08.609Z,75.52
2017-10-02T07:11:18.935Z,75.62
2017-10-02T07:12:29.260Z,75.37
2017-10-02T07:13:39.648Z,75.47
2017-10-02T07:14:50.950Z,75.18
2017-10-02T07:16:00.979Z,75.47
2017-10-02T07:17:11.320Z,75.56
2017-10-02T07:18:21.361Z,75.47
2017-10-02T07:19:31.768Z,75.6
2017-10-02T07:20:41.789Z,75.6
2017-10-02T07:21:52.122Z,75.6
2017-10-02T07:23:02.490Z,75.6
2017-10-02T07:24:12.820Z,75.51
2017-10-02T07:25:23.161Z,75.73
2017-10-02T07:26:33.514Z,75.45
2017-10-02T07:27:43.552Z,75.73
2017-10-02T07:28:53.904Z,75.73
2017-10-02T07:30:04.248Z,75.35
2017-10-02T07:31:14.649Z,75.64
2017-10-02T07:32:24.984Z,75.68
2017-10-02T07:33:35.348Z,75.77
2017-10-02T07:34:45.684Z,75.68
2017-10-02T07:35:56.048Z,75.58
2017-10-02T07:37:06.437Z,75.48
2017-10-02T07:38:16.805Z,75.58
2017-10-02T07:39:26.510Z,75.77
2017-10-02T07:40:36.851Z,75.48
2017-10-02T07:41:46.880Z,75.77
2017-10-02T07:42:57.365Z,75.52
2017-10-02T07:44:07.704Z,75.62
2017-10-02T07:45:18.073Z,75.71
2017-10-02T07:46:28.424Z,75.62
2017-10-02T07:47:38.775Z,75.43
2017-10-02T07:48:48.792Z,75.43
2017-10-02T07:49:58.814Z,75.46
2017-10-02T07:51:09.155Z,75.65
2017-10-02T07:52:19.168Z,75.46
2017-10-02T07:53:29.218Z,75.37
2017-10-02T07:54:39.571Z,75.37
2017-10-02T07:55:49.917Z,75.65
2017-10-02T07:56:59.628Z,75.65
2017-10-02T07:58:09.663Z,75.5
2017-10-02T07:59:20.018Z,75.6
2017-10-02T08:00:30.414Z,75.6
2017-10-02T08:01:40.764Z,75.79
2017-10-02T08:02:51.102Z,75.7
2017-10-02T08:04:01.252Z,75.7
2017-10-02T08:05:12.343Z,75.7
2017-10-02T08:06:22.728Z,75.73
2017-10-02T08:07:33.064Z,75.45
2017-10-02T08:08:43.407Z,75.54
2017-10-02T08:09:53.749Z,75.73
2017-10-02T08:11:03.787Z,75.92
2017-10-02T08:12:14.172Z,75.82
2017-10-02T08:13:24.501Z,75.82
2017-10-02T08:14:34.847Z,75.82
2017-10-02T08:15:45.180Z,75.77
2017-10-02T08:16:55.205Z,75.87
2017-10-02T08:18:05.608Z,75.87
2017-10-02T08:19:16.130Z,75.67
2017-10-02T08:20:26.182Z,75.77
2017-10-02T08:21:36.594Z,75.67
2017-10-02T08:22:46.987Z,75.67
2017-10-02T08:23:57.418Z,75.67
2017-10-02T08:25:07.799Z,75.77
2017-10-02T08:26:18.218Z,75.71
2017-10-02T08:27:28.578Z,75.81
2017-10-02T08:28:38.610Z,75.81
2017-10-02T08:29:48.979Z,75.81
2017-10-02T08:30:59.331Z,76
2017-10-02T08:32:09.380Z,75.84
2017-10-02T08:33:19.792Z,75.75
2017-10-02T08:34:30.177Z,75.75
2017-10-02T08:35:40.600Z,75.75
2017-10-02T08:36:50.657Z,75.65
2017-10-02T08:38:00.391Z,75.75
2017-10-02T08:39:10.547Z,75.65
2017-10-02T08:40:20.620Z,75.75
2017-10-02T08:41:31.061Z,76.07
2017-10-02T08:42:41.153Z,75.59
2017-10-02T08:43:51.519Z,75.69
2017-10-02T08:45:01.899Z,75.69
2017-10-02T08:46:12.374Z,76.17
2017-10-02T08:47:22.489Z,75.98
2017-10-02T08:48:32.869Z,75.79
2017-10-02T08:49:43.232Z,75.69
2017-10-02T08:50:53.323Z,75.49
2017-10-02T08:52:03.698Z,75.88
2017-10-02T08:53:14.130Z,75.69
2017-10-02T08:54:24.504Z,75.69
2017-10-02T08:55:34.878Z,75.73
2017-10-02T08:56:45.247Z,75.92
2017-10-02T08:57:55.636Z,75.92
2017-10-02T08:59:06.019Z,75.73
2017-10-02T09:00:16.401Z,75.63
2017-10-02T09:01:26.149Z,75.54
2017-10-02T09:02:36.532Z,75.63
2017-10-02T09:03:46.924Z,75.38
2017-10-02T09:04:57.349Z,75.38
2017-10-02T09:06:07.390Z,75.57
2017-10-02T09:07:17.759Z,75.48
2017-10-02T09:08:27.795Z,75.57
2017-10-02T09:09:37.856Z,75.51
2017-10-02T09:10:48.282Z,75.71
2017-10-02T09:11:58.349Z,75.71
2017-10-02T09:13:08.404Z,75.61
2017-10-02T09:14:18.786Z,75.71
2017-10-02T09:15:29.139Z,75.61
2017-10-02T09:16:39.554Z,75.42
2017-10-02T09:17:49.933Z,75.8
2017-10-02T09:19:00.311Z,75.71
2017-10-02T09:20:10.377Z,75.8
2017-10-02T09:21:20.732Z,75.42
2017-10-02T09:22:30.813Z,75.61
2017-10-02T09:23:41.171Z,75.71
2017-10-02T09:24:51.108Z,75.71
2017-10-02T09:26:01.147Z,75.71
2017-10-02T09:27:11.522Z,75.71
2017-10-02T09:28:21.891Z,75.74
2017-10-02T09:29:32.232Z,75.55
2017-10-02T09:30:42.287Z,75.74
2017-10-02T09:31:52.662Z,75.07
2017-10-02T09:33:02.703Z,75.65
2017-10-02T09:34:12.160Z,75.74
2017-10-02T09:35:22.213Z,75.74
2017-10-02T09:36:32.579Z,75.74
2017-10-02T09:37:42.948Z,75.55
2017-10-02T09:38:53.318Z,75.55
2017-10-02T09:40:03.730Z,75.45
2017-10-02T09:41:14.070Z,75.45
2017-10-02T09:42:24.417Z,75.65
2017-10-02T09:43:34.428Z,75.59
2017-10-02T09:44:44.785Z,75.55
2017-10-02T09:45:55.199Z,75.49
2017-10-02T09:47:05.551Z,75.49
2017-10-02T09:48:15.893Z,75.68
2017-10-02T09:49:26.260Z,75.01
2017-10-02T09:50:36.289Z,74.82
2017-10-02T09:51:46.688Z,75.14
2017-10-02T09:52:57.076Z,74.85
2017-10-02T09:54:07.423Z,74.85
2017-10-02T09:55:17.454Z,75.14
2017-10-02T09:56:27.788Z,74.85
2017-10-02T09:57:37.821Z,74.6
2017-10-02T09:58:48.166Z,75.09
2017-10-02T09:59:58.189Z,74.99
2017-10-02T10:01:08.522Z,75.18
2017-10-02T10:02:18.867Z,75.85
2017-10-02T10:03:29.255Z,75.85
2017-10-02T10:04:39.616Z,75.67
2017-10-02T10:05:49.978Z,76.05
2017-10-02T10:07:00.030Z,75.18
2017-10-02T10:08:10.076Z,75.99
2017-10-02T10:09:20.473Z,75.22
2017-10-02T10:10:30.823Z,74.93
2017-10-02T10:11:41.167Z,74.73
2017-10-02T10:12:51.516Z,74.73
2017-10-02T10:14:01.862Z,74.73
2017-10-02T10:15:12.251Z,74.93
2017-10-02T10:16:22.612Z,75.02
2017-10-02T10:17:32.974Z,74.93
2017-10-02T10:18:42.994Z,75.06
2017-10-02T10:19:53.024Z,75.06
2017-10-02T10:21:03.440Z,75.7
2017-10-02T10:22:13.785Z,75.93
2017-10-02T10:23:24.140Z,75.93
2017-10-02T10:24:34.488Z,75.93
2017-10-02T10:25:44.843Z,75.74
2017-10-02T10:26:55.248Z,75.26
2017-10-02T10:28:05.595Z,75.06
2017-10-02T10:29:15.940Z,75.06
2017-10-02T10:30:25.982Z,76.22
2017-10-02T10:31:36.340Z,75.74
2017-10-02T10:32:46.761Z,75.74
2017-10-02T10:33:56.825Z,75.64
2017-10-02T10:35:06.863Z,76.03
2017-10-02T10:36:17.223Z,75.16
2017-10-02T10:37:28.242Z,75.29
2017-10-02T10:38:38.648Z,76.16
2017-10-02T10:39:48.697Z,75.97
2017-10-02T10:40:59.078Z,76.16
2017-10-02T10:42:09.421Z,75.97
2017-10-02T10:43:19.787Z,75.29
2017-10-02T10:44:29.887Z,75.87
2017-10-02T10:45:40.251Z,75.78
2017-10-02T10:46:50.629Z,75.68
2017-10-02T10:48:01.849Z,75.68
2017-10-02T10:49:12.216Z,75.87
2017-10-02T10:50:22.562Z,75.68
2017-10-02T10:51:32.609Z,75.68
2017-10-02T10:52:42.954Z,75.68
2017-10-02T10:53:53.301Z,75.87
2017-10-02T10:55:03.639Z,75.71
2017-10-02T10:56:14.064Z,75.62
2017-10-02T10:57:24.094Z,75.71
2017-10-02T10:58:34.440Z,75.81
2017-10-02T10:59:44.794Z,75.33
2017-10-02T11:00:55.171Z,75.13
2017-10-02T11:02:05.526Z,75.33
2017-10-02T11:03:15.875Z,75.33
2017-10-02T11:04:26.236Z,75.43
2017-10-02T11:05:36.625Z,75.23
2017-10-02T11:06:46.979Z,75.33
2017-10-02T11:07:57.376Z,75.13
2017-10-02T11:09:07.409Z,75.23
2017-10-02T11:10:17.442Z,75.13
2017-10-02T11:11:27.797Z,75.04
2017-10-02T11:12:37.850Z,75.17
2017-10-02T11:13:48.200Z,75.13
2017-10-02T11:14:58.557Z,74.94
2017-10-02T11:16:08.590Z,75.04
2017-10-02T11:17:18.932Z,75.27
2017-10-02T11:18:28.664Z,75.27
2017-10-02T11:19:38.100Z,75.27
2017-10-02T11:20:48.460Z,75.07
2017-10-02T11:21:58.817Z,75.07
2017-10-02T11:23:08.880Z,75.07
2017-10-02T11:24:18.903Z,74.88
2017-10-02T11:25:29.134Z,75.17
2017-10-02T11:26:39.490Z,74.98
2017-10-02T11:27:49.847Z,74.98
2017-10-02T11:29:00.186Z,74.88
2017-10-02T11:30:10.547Z,75.07
2017-10-02T11:31:20.948Z,75.17
2017-10-02T11:32:30.985Z,75.07
2017-10-02T11:33:41.342Z,75.17
2017-10-02T11:34:51.375Z,75.21
2017-10-02T11:36:01.750Z,75.07
2017-10-02T11:37:12.164Z,75.07
2017-10-02T11:38:22.533Z,75.27
2017-10-02T11:39:32.580Z,74.98
2017-10-02T11:40:42.944Z,75.07
2017-10-02T11:41:53.327Z,75.07
2017-10-02T11:43:04.002Z,75.17
2017-10-02T11:44:14.365Z,75.17
2017-10-02T11:45:24.715Z,75.17
2017-10-02T11:46:35.055Z,75.27
2017-10-02T11:47:45.420Z,75.27
2017-10-02T11:48:55.760Z,75.07
2017-10-02T11:50:06.114Z,75.37
2017-10-02T11:51:16.478Z,75.27
2017-10-02T11:52:26.527Z,75.07
2017-10-02T11:53:36.887Z,75.27
2017-10-02T11:54:47.331Z,75.07
2017-10-02T11:55:57.657Z,74.98
2017-10-02T11:57:07.713Z,74.88
2017-10-02T11:58:18.104Z,75.07
2017-10-02T11:59:28.469Z,74.98
2017-10-02T12:00:38.865Z,74.79
2017-10-02T12:01:49.223Z,75.07
2017-10-02T12:02:59.257Z,74.88
2017-10-02T12:04:09.606Z,74.88
2017-10-02T12:05:19.961Z,74.98
2017-10-02T12:06:30.387Z,75.27
2017-10-02T12:07:40.100Z,74.73
2017-10-02T12:08:50.459Z,74.79
2017-10-02T12:10:00.810Z,74.73
2017-10-02T12:11:10.851Z,74.82
2017-10-02T12:12:20.957Z,74.82
2017-10-02T12:13:30.992Z,74.43
2017-10-02T12:14:41.349Z,75.21
2017-10-02T12:15:51.713Z,74.49
2017-10-02T12:17:02.072Z,75.17
2017-10-02T12:18:12.504Z,75.17
2017-10-02T12:19:22.862Z,75.37
2017-10-02T12:20:33.231Z,75.21
2017-10-02T12:21:43.586Z,74.69
2017-10-02T12:22:53.938Z,74.92
2017-10-02T12:24:05.115Z,74.53
2017-10-02T12:25:15.485Z,74.82
2017-10-02T12:26:25.557Z,74.82
2017-10-02T12:27:35.597Z,74.73
2017-10-02T12:28:45.625Z,75.11
2017-10-02T12:29:55.718Z,75.31
2017-10-02T12:31:06.081Z,74.92
2017-10-02T12:32:16.436Z,75.02
2017-10-02T12:33:26.781Z,75.02
2017-10-02T12:34:36.816Z,75.11
2017-10-02T12:35:47.213Z,75.21
2017-10-02T12:36:57.610Z,74.92
2017-10-02T12:38:07.674Z,75.11
2017-10-02T12:39:18.045Z,75.11
2017-10-02T12:40:28.392Z,74.82
2017-10-02T12:41:38.797Z,75.02
2017-10-02T12:42:48.853Z,75.21
2017-10-02T12:43:58.968Z,75.21
2017-10-02T12:45:09.013Z,74.92
2017-10-02T12:46:19.360Z,75.11
2017-10-02T12:47:29.762Z,75.27
2017-10-02T12:48:40.117Z,75.27
2017-10-02T12:49:50.469Z,75.27
2017-10-02T12:51:00.839Z,75.27
2017-10-02T12:52:10.875Z,75.27
2017-10-02T12:53:21.287Z,75.27
2017-10-02T12:54:31.336Z,75.17
2017-10-02T12:55:41.680Z,74.98
2017-10-02T12:56:52.082Z,75.07
2017-10-02T12:58:02.447Z,75.07
2017-10-02T12:59:12.523Z,75.27
2017-10-02T13:00:23.445Z,75.27
2017-10-02T13:01:33.170Z,75.17
2017-10-02T13:02:43.536Z,75.17
2017-10-02T13:03:53.924Z,75.46
2017-10-02T13:05:04.014Z,75.23
2017-10-02T13:06:14.385Z,75.07
2017-10-02T13:07:24.414Z,75.37
2017-10-02T13:08:34.453Z,75.04
2017-10-02T13:09:44.807Z,75.33
2017-10-02T13:10:55.149Z,74.94
2017-10-02T13:12:05.533Z,75.43
2017-10-02T13:13:15.253Z,74.94
2017-10-02T13:14:25.301Z,75.23
2017-10-02T13:15:35.341Z,75.23
2017-10-02T13:16:45.759Z,75.33
2017-10-02T13:17:56.112Z,75.43
2017-10-02T13:19:06.159Z,74.75
2017-10-02T13:20:16.522Z,74.85
2017-10-02T13:21:26.890Z,75.04
2017-10-02T13:22:36.986Z,75.17
2017-10-02T13:23:47.041Z,74.88
2017-10-02T13:24:57.398Z,75.46
2017-10-02T13:26:07.747Z,75.13
2017-10-02T13:27:18.079Z,75.23
2017-10-02T13:28:28.132Z,75.04
2017-10-02T13:29:38.176Z,75.13
2017-10-02T13:30:48.551Z,75.04
2017-10-02T13:31:58.575Z,75.13
2017-10-02T13:33:08.927Z,74.94
2017-10-02T13:34:19.023Z,74.85
2017-10-02T13:35:29.070Z,75.13
2017-10-02T13:36:39.408Z,74.94
2017-10-02T13:37:49.737Z,75.23
2017-10-02T13:39:00.083Z,75.13
2017-10-02T13:40:10.513Z,75.33
2017-10-02T13:41:20.546Z,75.33
2017-10-02T13:42:30.902Z,75.43
2017-10-02T13:43:41.256Z,75.13
2017-10-02T13:44:51.595Z,75.23
2017-10-02T13:46:01.691Z,75.33
2017-10-02T13:47:11.725Z,75.13
2017-10-02T13:48:22.104Z,75.39
2017-10-02T13:49:32.472Z,75.97
2017-10-02T13:50:42.818Z,75.1
2017-10-02T13:51:52.837Z,76.06
2017-10-02T13:53:03.210Z,75.68
2017-10-02T13:54:13.555Z,75.87
2017-10-02T13:55:23.923Z,75.78
2017-10-02T13:56:34.283Z,76.2
2017-10-02T13:57:44.700Z,75.29
2017-10-02T13:58:55.061Z,75.78
2017-10-02T14:00:05.423Z,75.87
2017-10-02T14:01:15.469Z,75.78
2017-10-02T14:02:25.827Z,75.87
2017-10-02T14:03:35.937Z,75.78
2017-10-02T14:04:46.295Z,75.97
2017-10-02T14:05:56.661Z,75.74
2017-10-02T14:07:07.539Z,75.84
2017-10-02T14:08:17.891Z,75.93
2017-10-02T14:09:28.302Z,75.64
2017-10-02T14:10:38.674Z,75.64
2017-10-02T14:11:49.019Z,75.74
2017-10-02T14:12:59.073Z,75.93
2017-10-02T14:14:09.430Z,75.74
2017-10-02T14:15:19.839Z,75.74
2017-10-02T14:16:30.462Z,75.64
2017-10-02T14:17:40.804Z,75.64
2017-10-02T14:18:51.152Z,75.84
2017-10-02T14:20:01.519Z,75.74
2017-10-02T14:21:11.909Z,75.6
2017-10-02T14:22:22.265Z,75.99
2017-10-02T14:23:32.300Z,76.18
2017-10-02T14:24:42.672Z,75.99
2017-10-02T14:25:53.040Z,75.99
2017-10-02T14:27:03.393Z,76.18
2017-10-02T14:28:13.753Z,76.18
2017-10-02T14:29:24.107Z,76.18
2017-10-02T14:30:34.140Z,76.28
2017-10-02T14:31:44.512Z,76.28
2017-10-02T14:32:54.907Z,76.09
2017-10-02T14:34:05.274Z,76.28
2017-10-02T14:35:15.637Z,76.37
2017-10-02T14:36:25.993Z,76.15
2017-10-02T14:37:36.337Z,75.95
2017-10-02T14:38:46.071Z,76.05
2017-10-02T14:39:56.447Z,75.85
2017-10-02T14:41:06.475Z,75.95
2017-10-02T14:42:16.831Z,75.95
2017-10-02T14:43:27.207Z,76.43
2017-10-02T14:44:36.909Z,76.53
2017-10-02T14:45:47.292Z,76.63
2017-10-02T14:46:57.322Z,76.24
2017-10-02T14:48:07.356Z,76.05
2017-10-02T14:49:17.725Z,76.43
2017-10-02T14:50:27.771Z,76.15
2017-10-02T14:51:38.162Z,76.24
2017-10-02T14:52:48.213Z,76.24
2017-10-02T14:53:59.358Z,76.15
2017-10-02T14:55:09.422Z,76.05
2017-10-02T14:56:19.469Z,76.3
2017-10-02T14:57:30.261Z,76.78
2017-10-02T14:58:40.301Z,76.78
2017-10-02T14:59:50.654Z,76.4
2017-10-02T15:01:00.991Z,76.98
2017-10-02T15:02:11.322Z,76.78
2017-10-02T15:03:21.403Z,76.5
2017-10-02T15:04:31.772Z,76.75
2017-10-02T15:05:42.121Z,76.93
2017-10-02T15:06:52.469Z,76.84
2017-10-02T15:08:02.537Z,76.65
2017-10-02T15:09:12.937Z,76.42
2017-10-02T15:10:23.305Z,76.65
2017-10-02T15:11:33.658Z,76.65
2017-10-02T15:12:44.002Z,76.42
2017-10-02T15:13:54.374Z,76.32
2017-10-02T15:15:04.721Z,76.51
2017-10-02T15:16:14.764Z,76.51
2017-10-02T15:17:25.051Z,76.61
2017-10-02T15:18:35.406Z,76.61
2017-10-02T15:19:45.125Z,76.61
2017-10-02T15:20:55.527Z,76.71
2017-10-02T15:22:05.553Z,76.9
2017-10-02T15:23:15.913Z,76.42
2017-10-02T15:24:26.274Z,76.71
2017-10-02T15:25:36.652Z,77.19
2017-10-02T15:26:47.063Z,77
2017-10-02T15:27:57.099Z,77.58
2017-10-02T15:29:07.482Z,77.38
2017-10-02T15:30:17.838Z,77.25
2017-10-02T15:31:28.202Z,77.15
2017-10-02T15:32:38.605Z,77.63
2017-10-02T15:33:48.956Z,77.63
2017-10-02T15:34:59.302Z,77.44
2017-10-02T15:36:09.658Z,77.4
2017-10-02T15:37:19.367Z,77.59